Time;durP1;ratioP1;P1;durP2;ratioP2;P2;SDS_P1;SDS_P2;PMS_P1;PMS_P2;Temp;Humidity;BMP_temperature;BMP_pressure;BME280_temperature;BME280_humidity;BME280_pressure;Samples;Min_cycle;Max_cycle;Signal;HPM_P1;HPM_P2
2021/11/15 00:00:15;;;;;;;;;;;;;;;3.95;100.00;100555.16;1711944;83;20199;-73
2021/11/15 00:02:45;;;;;;;;;;;;;;;3.93;100.00;100557.17;1696263;84;20095;-72
2021/11/15 00:05:12;;;;;;;;;;;;;;;3.92;100.00;100552.03;1698459;83;20105;-72
2021/11/15 00:07:43;;;;;;;;;;;;;;;3.89;100.00;100555.88;1715128;83;20102;-73
2021/11/15 00:10:15;;;;;;;;;;;;;;;3.88;100.00;100560.08;1729773;83;20112;-73
2021/11/15 00:12:40;;;;;;;;;;;;;;;3.86;100.00;100562.91;1729614;83;20145;-73
2021/11/15 00:15:10;;;;;;;;;;;;;;;3.85;100.00;100555.45;1729624;83;20183;-73
2021/11/15 00:17:36;;;;;;;;;;;;;;;3.85;100.00;100557.28;1729317;83;20169;-73
2021/11/15 00:20:05;;;;;;;;;;;;;;;3.83;100.00;100561.44;1730015;83;21153;-72
2021/11/15 00:22:32;;;;;;;;;;;;;;;3.83;100.00;100561.95;1730119;83;20124;-72
2021/11/15 00:24:59;;;;;;;;;;;;;;;3.80;100.00;100555.18;1730014;83;20161;-73
2021/11/15 00:27:25;;;;;;;;;;;;;;;3.78;100.00;100550.55;1727717;83;20149;-72
2021/11/15 00:29:53;;;;;;;;;;;;;;;3.77;100.00;100557.36;1715400;83;20208;-72
2021/11/15 00:32:22;;;;;;;;;;;;;;;3.74;100.00;100559.07;1729820;83;20655;-71
2021/11/15 00:34:48;;;;;;;;;;;;;;;3.73;100.00;100548.95;1729485;83;20208;-72
2021/11/15 00:37:15;;;;;;;;;;;;;;;3.72;100.00;100551.27;1730106;83;20163;-72
2021/11/15 00:39:42;;;;;;;;;;;;;;;3.71;100.00;100554.14;1729889;83;20146;-72
2021/11/15 00:42:08;;;;;;;;;;;;;;;3.69;100.00;100558.80;1730302;83;20172;-73
2021/11/15 00:44:35;;;;;;;;;;;;;;;3.69;100.00;100556.14;1729936;83;21199;-72
2021/11/15 00:47:02;;;;;;;;;;;;;;;3.66;100.00;100548.05;1729270;83;20163;-72
2021/11/15 00:49:29;;;;;;;;;;;;;;;3.65;100.00;100548.55;1730064;83;20092;-73
2021/11/15 00:51:55;;;;;;;;;;;;;;;3.67;100.00;100551.52;1729645;83;20648;-72
2021/11/15 00:54:22;;;;;;;;;;;;;;;3.65;100.00;100555.70;1732277;83;20449;-73
2021/11/15 00:56:49;;;;;;;;;;;;;;;3.63;100.00;100563.84;1731482;82;21166;-72
2021/11/15 00:59:15;;;;;;;;;;;;;;;3.61;100.00;100565.85;1725927;82;20178;-73
2021/11/15 01:01:43;;;;;;;;;;;;;;;3.59;100.00;100569.19;1733779;82;20092;-71
2021/11/15 01:04:09;;;;;;;;;;;;;;;3.58;100.00;100574.19;1732535;83;20216;-72
2021/11/15 01:06:37;;;;;;;;;;;;;;;3.58;100.00;100576.03;1732621;82;20120;-73
2021/11/15 01:09:03;;;;;;;;;;;;;;;3.57;100.00;100579.67;1732745;83;21595;-73
2021/11/15 01:11:32;;;;;;;;;;;;;;;3.56;100.00;100582.02;1732874;82;20100;-73
2021/11/15 01:14:01;;;;;;;;;;;;;;;3.56;100.00;100583.34;1732658;82;20100;-73
2021/11/15 01:16:27;;;;;;;;;;;;;;;3.54;100.00;100580.86;1728450;83;20204;-72
2021/11/15 01:18:54;;;;;;;;;;;;;;;3.52;100.00;100584.20;1727987;83;20175;-73
2021/11/15 01:21:27;;;;;;;;;;;;;;;3.52;100.00;100575.41;1728663;83;21804;-72
2021/11/15 01:23:50;;;;;;;;;;;;;;;3.50;100.00;100580.89;1727895;83;20193;-72
2021/11/15 01:26:17;;;;;;;;;;;;;;;3.48;100.00;100574.97;1731625;82;20153;-72
2021/11/15 01:28:44;;;;;;;;;;;;;;;3.48;100.00;100583.41;1727763;82;20416;-72
2021/11/15 01:31:11;;;;;;;;;;;;;;;3.48;100.00;100587.39;1725000;82;20137;-71
2021/11/15 01:33:37;;;;;;;;;;;;;;;3.47;100.00;100595.86;1733504;82;21118;-71
2021/11/15 01:36:04;;;;;;;;;;;;;;;3.46;100.00;100595.55;1733032;82;20084;-72
2021/11/15 01:38:34;;;;;;;;;;;;;;;3.45;100.00;100592.56;1708220;83;20441;-72
2021/11/15 01:41:06;;;;;;;;;;;;;;;3.43;100.00;100590.62;1707301;83;20107;-73
2021/11/15 01:43:32;;;;;;;;;;;;;;;3.44;100.00;100593.58;1732866;83;20277;-73
2021/11/15 01:45:59;;;;;;;;;;;;;;;3.44;100.00;100594.40;1732560;83;21572;-71
2021/11/15 01:48:25;;;;;;;;;;;;;;;3.44;100.00;100598.89;1733090;82;20100;-72
2021/11/15 01:50:54;;;;;;;;;;;;;;;3.43;100.00;100594.59;1732787;83;20089;-71
2021/11/15 01:53:20;;;;;;;;;;;;;;;3.43;100.00;100597.25;1726223;83;20180;-72
2021/11/15 01:55:47;;;;;;;;;;;;;;;3.42;100.00;100592.93;1716027;83;20141;-71
2021/11/15 01:58:15;;;;;;;;;;;;;;;3.42;100.00;100595.59;1712672;83;21717;-71
2021/11/15 02:00:44;;;;;;;;;;;;;;;3.41;100.00;100590.78;1717764;83;20100;-74
2021/11/15 02:03:13;;;;;;;;;;;;;;;3.40;100.00;100585.65;1717606;83;20158;-74
2021/11/15 02:05:39;;;;;;;;;;;;;;;3.40;100.00;100590.95;1716580;83;20160;-74
2021/11/15 02:08:08;;;;;;;;;;;;;;;3.39;100.00;100591.47;1717020;83;20085;-71
2021/11/15 02:10:34;;;;;;;;;;;;;;;3.38;100.00;100592.96;1710232;83;21188;-73
2021/11/15 02:13:02;;;;;;;;;;;;;;;3.38;100.00;100592.96;1712667;83;20105;-72
2021/11/15 02:15:29;;;;;;;;;;;;;;;3.37;100.00;100601.44;1702816;84;20136;-72
2021/11/15 02:17:57;;;;;;;;;;;;;;;3.38;100.00;100592.48;1716368;83;20101;-74
2021/11/15 02:20:28;;;;;;;;;;;;;;;3.37;100.00;100592.14;1717637;83;20149;-73
2021/11/15 02:22:55;;;;;;;;;;;;;;;3.39;100.00;100597.28;1712976;83;21173;-72
2021/11/15 02:25:23;;;;;;;;;;;;;;;3.39;100.00;100605.25;1716892;83;20423;-72
2021/11/15 02:27:50;;;;;;;;;;;;;;;3.38;100.00;100599.59;1716843;83;20149;-72
2021/11/15 02:30:20;;;;;;;;;;;;;;;3.38;100.00;100615.52;1707632;83;20498;-73
2021/11/15 02:32:47;;;;;;;;;;;;;;;3.38;100.00;100619.50;1718221;83;20435;-73
2021/11/15 02:35:14;;;;;;;;;;;;;;;3.36;100.00;100625.52;1717652;83;21834;-71
2021/11/15 02:37:41;;;;;;;;;;;;;;;3.35;100.00;100625.18;1717002;83;20122;-71
2021/11/15 02:40:10;;;;;;;;;;;;;;;3.33;100.00;100620.07;1716956;83;20093;-70
2021/11/15 02:42:38;;;;;;;;;;;;;;;3.33;100.00;100619.22;1701154;83;20142;-73
2021/11/15 02:45:06;;;;;;;;;;;;;;;3.32;100.00;100633.51;1716750;83;20180;-72
2021/11/15 02:47:41;;;;;;;;;;;;;;;3.31;100.00;100632.69;1716390;83;21132;-73
2021/11/15 02:50:14;;;;;;;;;;;;;;;3.30;100.00;100632.34;1716545;83;20140;-72
2021/11/15 02:52:43;;;;;;;;;;;;;;;3.30;100.00;100635.00;1716369;83;20494;-72
2021/11/15 02:55:10;;;;;;;;;;;;;;;3.29;100.00;100640.00;1696678;83;20394;-74
2021/11/15 02:57:37;;;;;;;;;;;;;;;3.27;100.00;100634.04;1716413;83;20133;-73
2021/11/15 03:00:05;;;;;;;;;;;;;;;3.28;100.00;100639.66;1716762;83;21203;-74
2021/11/15 03:02:32;;;;;;;;;;;;;;;3.26;100.00;100644.34;1709115;83;20450;-72
2021/11/15 03:04:58;;;;;;;;;;;;;;;3.24;100.00;100641.05;1717139;83;20141;-71
2021/11/15 03:07:25;;;;;;;;;;;;;;;3.21;100.00;100640.08;1716746;83;20101;-74
2021/11/15 03:09:51;;;;;;;;;;;;;;;3.19;100.00;100644.23;1716702;83;20133;-73
2021/11/15 03:12:19;;;;;;;;;;;;;;;3.19;100.00;100650.05;1716773;83;20932;-72
2021/11/15 03:14:46;;;;;;;;;;;;;;;3.20;100.00;100653.00;1716706;83;20140;-70
2021/11/15 03:17:12;;;;;;;;;;;;;;;3.18;100.00;100650.52;1716694;83;20145;-73
2021/11/15 03:19:40;;;;;;;;;;;;;;;3.18;100.00;100649.70;1717002;83;20447;-73
2021/11/15 03:22:07;;;;;;;;;;;;;;;3.17;100.00;100647.55;1716865;83;20170;-72
2021/11/15 03:24:34;;;;;;;;;;;;;;;3.17;100.00;100648.06;1716675;83;21273;-73
2021/11/15 03:27:01;;;;;;;;;;;;;;;3.17;100.00;100645.41;1716722;83;20431;-73
2021/11/15 03:29:27;;;;;;;;;;;;;;;3.18;100.00;100648.38;1716721;83;20423;-71
2021/11/15 03:31:54;;;;;;;;;;;;;;;3.17;100.00;100648.88;1712141;83;20202;-72
2021/11/15 03:34:20;;;;;;;;;;;;;;;3.17;100.00;100654.19;1716552;83;20176;-71
2021/11/15 03:36:47;;;;;;;;;;;;;;;3.16;100.00;100655.20;1716268;83;21173;-72
2021/11/15 03:39:16;;;;;;;;;;;;;;;3.16;100.00;100652.55;1716122;83;20121;-73
2021/11/15 03:41:44;;;;;;;;;;;;;;;3.17;100.00;100669.29;1716264;83;20149;-72
2021/11/15 03:44:11;;;;;;;;;;;;;;;3.17;100.00;100667.45;1716290;83;20177;-73
2021/11/15 03:46:38;;;;;;;;;;;;;;;3.14;100.00;100667.81;1716455;83;20157;-73
2021/11/15 03:49:05;;;;;;;;;;;;;;;3.16;100.00;100672.93;1716473;83;21217;-73
2021/11/15 03:51:33;;;;;;;;;;;;;;;3.13;100.00;100676.77;1716179;83;20639;-71
2021/11/15 03:53:59;;;;;;;;;;;;;;;3.14;100.00;100681.08;1718539;83;20148;-74
2021/11/15 03:56:28;;;;;;;;;;;;;;;3.13;100.00;100679.92;1713244;83;21257;-72
2021/11/15 03:58:55;;;;;;;;;;;;;;;3.12;100.00;100684.41;1707488;83;20215;-72
2021/11/15 04:01:25;;;;;;;;;;;;;;;3.14;100.00;100683.73;1708104;83;21163;-72
2021/11/15 04:03:50;;;;;;;;;;;;;;;3.14;100.00;100686.39;1701853;83;20173;-72
2021/11/15 04:06:23;;;;;;;;;;;;;;;3.13;100.00;100691.86;1684431;85;20140;-73
2021/11/15 04:08:51;;;;;;;;;;;;;;;3.11;100.00;100685.42;1703877;84;20160;-73
2021/11/15 04:11:19;;;;;;;;;;;;;;;3.12;100.00;100696.34;1711934;83;20149;-71
2021/11/15 04:13:48;;;;;;;;;;;;;;;3.11;100.00;100696.52;1702418;84;21843;-72
2021/11/15 04:16:15;;;;;;;;;;;;;;;3.07;100.00;100689.42;1698331;84;20423;-71
2021/11/15 04:18:48;;;;;;;;;;;;;;;3.08;100.00;100704.33;1698295;84;20113;-73
2021/11/15 04:21:16;;;;;;;;;;;;;;;3.08;100.00;100709.63;1698380;84;20444;-71
2021/11/15 04:23:42;;;;;;;;;;;;;;;3.10;100.00;100707.63;1698440;84;20084;-74
2021/11/15 04:26:09;;;;;;;;;;;;;;;3.09;100.00;100709.16;1709303;84;21211;-72
2021/11/15 04:28:35;;;;;;;;;;;;;;;3.07;100.00;100713.30;1695288;84;20160;-72
2021/11/15 04:31:02;;;;;;;;;;;;;;;3.07;100.00;100719.92;1695389;83;20077;-74
2021/11/15 04:33:30;;;;;;;;;;;;;;;3.08;100.00;100718.09;1696341;83;20089;-73
2021/11/15 04:35:56;;;;;;;;;;;;;;;3.09;100.00;100725.89;1698229;83;20112;-73
2021/11/15 04:38:24;;;;;;;;;;;;;;;3.10;100.00;100726.70;1693485;84;21166;-71
2021/11/15 04:40:50;;;;;;;;;;;;;;;3.09;100.00;100733.84;1711992;84;20093;-71
2021/11/15 04:43:17;;;;;;;;;;;;;;;3.07;100.00;100735.84;1700550;84;20113;-72
2021/11/15 04:45:44;;;;;;;;;;;;;;;3.06;100.00;100741.31;1712138;83;20164;-72
2021/11/15 04:48:10;;;;;;;;;;;;;;;3.07;100.00;100743.80;1712091;84;20470;-71
2021/11/15 04:50:37;;;;;;;;;;;;;;;3.08;100.00;100745.95;1705013;83;21161;-72
2021/11/15 04:53:04;;;;;;;;;;;;;;;3.09;100.00;100756.91;1695227;84;20133;-71
2021/11/15 04:55:31;;;;;;;;;;;;;;;3.09;100.00;100761.70;1712554;83;20090;-73
2021/11/15 04:57:59;;;;;;;;;;;;;;;3.10;100.00;100766.50;1688069;85;20118;-72
2021/11/15 05:00:30;;;;;;;;;;;;;;;3.10;100.00;100767.32;1672902;86;20136;-71
2021/11/15 05:02:57;;;;;;;;;;;;;;;3.09;100.00;100770.17;1671601;86;21218;-72
2021/11/15 05:05:23;;;;;;;;;;;;;;;3.08;100.00;100771.16;1670908;85;20093;-73
2021/11/15 05:07:54;;;;;;;;;;;;;;;3.07;100.00;100767.67;1672593;85;20093;-72
2021/11/15 05:10:22;;;;;;;;;;;;;;;3.06;100.00;100771.31;1672338;86;20774;-72
2021/11/15 05:12:51;;;;;;;;;;;;;;;3.07;100.00;100779.61;1668750;86;20081;-71
2021/11/15 05:15:18;;;;;;;;;;;;;;;3.07;100.00;100778.80;1672794;86;21614;-72
2021/11/15 05:17:47;;;;;;;;;;;;;;;3.07;100.00;100788.90;1671016;86;20093;-72
2021/11/15 05:20:13;;;;;;;;;;;;;;;3.07;100.00;100784.92;1671359;86;20165;-72
2021/11/15 05:22:40;;;;;;;;;;;;;;;3.05;100.00;100780.28;1671081;85;20169;-73
2021/11/15 05:25:08;;;;;;;;;;;;;;;3.04;100.00;100785.28;1669495;85;20089;-73
2021/11/15 05:27:35;;;;;;;;;;;;;;;3.04;100.00;100787.08;1674315;85;21204;-72
2021/11/15 05:30:04;;;;;;;;;;;;;;;3.04;100.00;100789.26;1674178;85;20156;-72
2021/11/15 05:32:32;;;;;;;;;;;;;;;3.03;100.00;100788.91;1673526;85;20149;-72
2021/11/15 05:34:59;;;;;;;;;;;;;;;3.03;100.00;100800.03;1684495;85;20100;-74
2021/11/15 05:37:25;;;;;;;;;;;;;;;3.04;100.00;100807.83;1698342;84;20116;-71
2021/11/15 05:39:52;;;;;;;;;;;;;;;3.04;100.00;100805.17;1699160;83;21097;-73
2021/11/15 05:42:18;;;;;;;;;;;;;;;3.05;100.00;100817.93;1703637;83;20091;-74
2021/11/15 05:44:45;;;;;;;;;;;;;;;3.05;100.00;100833.84;1692408;83;20113;-72
2021/11/15 05:47:11;;;;;;;;;;;;;;;3.02;100.00;100833.69;1711066;83;20209;-73
2021/11/15 05:49:38;;;;;;;;;;;;;;;3.02;100.00;100832.37;1698403;84;20101;-72
2021/11/15 05:52:06;;;;;;;;;;;;;;;3.03;100.00;100839.81;1698462;84;21180;-72
2021/11/15 05:54:32;;;;;;;;;;;;;;;3.01;100.00;100843.95;1695628;83;20118;-70
2021/11/15 05:56:59;;;;;;;;;;;;;;;2.99;100.00;100841.50;1706126;84;20077;-74
2021/11/15 05:59:27;;;;;;;;;;;;;;;2.99;100.00;100847.31;1707985;82;20143;-72
2021/11/15 06:01:54;;;;;;;;;;;;;;;2.98;100.00;100846.97;1703751;83;20183;-73
2021/11/15 06:04:21;;;;;;;;;;;;;;;2.98;100.00;100849.11;1662369;84;21152;-73
2021/11/15 06:06:47;;;;;;;;;;;;;;;2.97;100.00;100846.14;1663327;86;20101;-73
2021/11/15 06:09:13;;;;;;;;;;;;;;;2.97;100.00;100854.10;1663255;86;20095;-71
2021/11/15 06:11:40;;;;;;;;;;;;;;;2.99;100.00;100851.28;1663296;86;20216;-73
2021/11/15 06:14:07;;;;;;;;;;;;;;;2.99;100.00;100857.41;1663159;86;20093;-72
2021/11/15 06:16:34;;;;;;;;;;;;;;;3.02;100.00;100866.85;1672907;84;22167;-74
2021/11/15 06:19:02;;;;;;;;;;;;;;;3.02;100.00;100862.05;1662472;86;20169;-73
2021/11/15 06:21:29;;;;;;;;;;;;;;;3.00;100.00;100868.34;1662527;86;20166;-73
2021/11/15 06:23:56;;;;;;;;;;;;;;;3.00;100.00;100867.02;1662521;85;20213;-74
2021/11/15 06:26:23;;;;;;;;;;;;;;;3.02;100.00;100875.31;1662659;84;20150;-72
2021/11/15 06:28:49;;;;;;;;;;;;;;;3.00;100.00;100880.78;1667335;85;21108;-75
2021/11/15 06:31:16;;;;;;;;;;;;;;;2.98;100.00;100883.59;1688795;85;20131;-71
2021/11/15 06:33:48;;;;;;;;;;;;;;;2.96;100.00;100882.96;1670811;85;20220;-72
2021/11/15 06:36:11;;;;;;;;;;;;;;;2.94;100.00;100881.45;1688768;84;20178;-72
2021/11/15 06:38:37;;;;;;;;;;;;;;;2.94;100.00;100887.61;1653070;86;20486;-70
2021/11/15 06:41:04;;;;;;;;;;;;;;;2.95;100.00;100887.92;1662730;86;22072;-72
2021/11/15 06:43:30;;;;;;;;;;;;;;;2.96;100.00;100890.92;1662757;86;20146;-71
2021/11/15 06:45:57;;;;;;;;;;;;;;;2.97;100.00;100892.56;1663030;86;20200;-73
2021/11/15 06:48:24;;;;;;;;;;;;;;;2.98;100.00;100890.22;1655844;86;20221;-71
2021/11/15 06:50:50;;;;;;;;;;;;;;;3.00;100.00;100894.86;1640789;86;20187;-72
2021/11/15 06:53:17;;;;;;;;;;;;;;;3.02;100.00;100896.53;1637389;87;21187;-72
2021/11/15 06:55:44;;;;;;;;;;;;;;;3.00;100.00;100891.39;1637101;87;20136;-73
2021/11/15 06:58:11;;;;;;;;;;;;;;;2.99;100.00;100895.88;1655932;85;20479;-70
2021/11/15 07:00:37;;;;;;;;;;;;;;;2.98;100.00;100904.81;1692540;85;20425;-71
2021/11/15 07:03:06;;;;;;;;;;;;;;;2.96;100.00;100905.98;1691991;85;20136;-72
2021/11/15 07:05:35;;;;;;;;;;;;;;;2.93;100.00;100905.00;1690897;85;21185;-72
2021/11/15 07:08:03;;;;;;;;;;;;;;;2.92;100.00;100908.67;1692407;85;20107;-72
2021/11/15 07:10:29;;;;;;;;;;;;;;;2.93;100.00;100911.13;1692756;85;20155;-70
2021/11/15 07:12:57;;;;;;;;;;;;;;;2.94;100.00;100915.93;1684566;84;20453;-73
2021/11/15 07:15:25;;;;;;;;;;;;;;;2.97;100.00;100918.27;1720824;83;20513;-74
2021/11/15 07:17:52;;;;;;;;;;;;;;;2.97;100.00;100917.76;1722465;83;21076;-70
2021/11/15 07:20:20;;;;;;;;;;;;;;;3.00;100.00;100924.55;1717558;83;20438;-72
2021/11/15 07:22:48;;;;;;;;;;;;;;;3.00;100.00;100928.02;1722237;83;20151;-73
2021/11/15 07:25:17;;;;;;;;;;;;;;;3.01;100.00;100928.84;1725478;82;20204;-72
2021/11/15 07:27:49;;;;;;;;;;;;;;;2.98;100.00;100922.56;1713727;83;20228;-73
2021/11/15 07:30:15;;;;;;;;;;;;;;;2.99;100.00;100933.52;1691014;83;20892;-73
2021/11/15 07:32:42;;;;;;;;;;;;;;;2.99;100.00;100936.17;1725124;82;20231;-71
2021/11/15 07:35:08;;;;;;;;;;;;;;;2.99;100.00;100940.14;1723592;82;20140;-73
2021/11/15 07:37:35;;;;;;;;;;;;;;;2.99;100.00;100938.82;1722073;83;20739;-72
2021/11/15 07:40:07;;;;;;;;;;;;;;;2.98;100.00;100942.45;1719334;82;20145;-72
2021/11/15 07:42:34;;;;;;;;;;;;;;;2.97;100.00;100941.63;1722412;83;21140;-73
2021/11/15 07:45:01;;;;;;;;;;;;;;;2.98;100.00;100941.13;1718704;81;20120;-71
2021/11/15 07:47:28;;;;;;;;;;;;;;;2.97;100.00;100938.16;1724497;83;20127;-72
2021/11/15 07:49:55;;;;;;;;;;;;;;;2.94;100.00;100941.98;1711647;82;20635;-72
2021/11/15 07:52:22;;;;;;;;;;;;;;;2.94;100.00;100938.47;1714161;82;20104;-72
2021/11/15 07:54:49;;;;;;;;;;;;;;;2.93;100.00;100951.42;1719610;82;21197;-72
2021/11/15 07:57:16;;;;;;;;;;;;;;;2.93;100.00;100942.14;1707072;83;20192;-72
2021/11/15 07:59:44;;;;;;;;;;;;;;;2.96;100.00;100953.72;1708565;83;20173;-72
2021/11/15 08:02:12;;;;;;;;;;;;;;;2.95;100.00;100943.62;1719412;83;20216;-72
2021/11/15 08:04:39;;;;;;;;;;;;;;;2.96;100.00;100953.25;1723064;83;20227;-70
2021/11/15 08:07:06;;;;;;;;;;;;;;;2.97;100.00;100948.77;1719789;83;21533;-71
2021/11/15 08:09:33;;;;;;;;;;;;;;;2.95;100.00;100963.52;1725375;83;20192;-71
2021/11/15 08:12:03;;;;;;;;;;;;;;;2.96;100.00;100969.16;1719545;83;20195;-70
2021/11/15 08:14:30;;;;;;;;;;;;;;;3.01;100.00;100971.28;1718532;82;20403;-73
2021/11/15 08:16:59;;;;;;;;;;;;;;;3.02;100.00;100970.30;1710136;83;20133;-71
2021/11/15 08:19:26;;;;;;;;;;;;;;;3.04;100.00;100966.98;1714065;82;21562;-71
2021/11/15 08:25:23;;;;;;;;;;;;;;;3.12;100.00;100978.89;1714518;81;20209;-70
2021/11/15 08:27:50;;;;;;;;;;;;;;;3.10;100.00;100978.73;1727939;81;20177;-69
2021/11/15 08:30:16;;;;;;;;;;;;;;;3.14;100.00;100984.04;1729149;82;20144;-69
2021/11/15 08:32:43;;;;;;;;;;;;;;;3.16;100.00;100987.33;1728028;82;21157;-68
2021/11/15 08:35:14;;;;;;;;;;;;;;;3.21;100.00;100987.17;1722040;82;20291;-71
2021/11/15 08:38:08;;;;;;;;;;;;;;;3.21;100.00;100995.12;1705308;82;20140;-71
2021/11/15 08:40:35;;;;;;;;;;;;;;;3.20;100.00;100993.95;1736550;82;20189;-72
2021/11/15 08:43:02;;;;;;;;;;;;;;;3.25;100.00;100989.47;1719761;82;20149;-70
2021/11/15 08:45:53;;;;;;;;;;;;;;;3.30;100.00;100996.42;1702973;84;22170;-70
2021/11/15 08:48:21;;;;;;;;;;;;;;;3.33;100.00;100994.75;1740320;81;20458;-71
2021/11/15 08:50:48;;;;;;;;;;;;;;;3.38;100.00;100994.58;1738637;81;20160;-71
2021/11/15 08:53:16;;;;;;;;;;;;;;;3.43;100.00;101011.33;1739359;81;20127;-69
2021/11/15 08:55:44;;;;;;;;;;;;;;;3.47;100.00;101021.09;1743596;81;20316;-70
2021/11/15 08:58:12;;;;;;;;;;;;;;;3.49;100.00;101013.28;1737221;82;21145;-73
2021/11/15 09:00:42;;;;;;;;;;;;;;;3.56;100.00;101022.72;1699542;84;20121;-70
2021/11/15 09:03:07;;;;;;;;;;;;;;;3.55;100.00;101017.06;1729606;83;20188;-71
2021/11/15 09:05:34;;;;;;;;;;;;;;;3.58;100.00;101015.42;1704153;83;20204;-71
2021/11/15 09:08:01;;;;;;;;;;;;;;;3.63;100.00;101014.40;1752702;81;20220;-69
2021/11/15 09:10:28;;;;;;;;;;;;;;;3.61;100.00;101019.05;1734852;81;21048;-68
2021/11/15 09:12:56;;;;;;;;;;;;;;;3.62;100.00;101015.38;1754364;81;20145;-70
2021/11/15 09:15:23;;;;;;;;;;;;;;;3.61;100.00;101021.20;1707174;82;20157;-72
2021/11/15 09:17:50;;;;;;;;;;;;;;;3.59;100.00;101012.56;1734196;81;20864;-70
2021/11/15 09:20:17;;;;;;;;;;;;;;;3.58;100.00;101006.95;1704609;83;20210;-70
2021/11/15 09:22:45;;;;;;;;;;;;;;;3.62;100.00;101006.91;1729655;82;20100;-72
2021/11/15 09:25:14;;;;;;;;;;;;;;;3.67;100.00;101014.36;1729476;81;20188;-68
2021/11/15 09:27:41;;;;;;;;;;;;;;;3.76;100.00;101008.52;1731450;81;20479;-70
2021/11/15 09:30:12;;;;;;;;;;;;;;;3.86;100.00;101009.95;1729050;81;21194;-72
2021/11/15 09:32:42;;;;;;;;;;;;;;;3.94;100.00;101018.38;1728574;81;20493;-73
2021/11/15 09:35:10;;;;;;;;;;;;;;;4.00;100.00;101011.56;1702474;83;21102;-74
2021/11/15 09:37:37;;;;;;;;;;;;;;;3.98;100.00;101007.73;1707868;83;20198;-71
2021/11/15 09:40:08;;;;;;;;;;;;;;;4.08;100.00;101015.48;1698483;83;20531;-73
2021/11/15 09:42:36;;;;;;;;;;;;;;;4.21;100.00;101013.06;1736308;81;20201;-71
2021/11/15 09:45:07;;;;;;;;;;;;;;;4.30;100.00;101013.34;1733953;81;20205;-74
2021/11/15 09:47:40;;;;;;;;;;;;;;;4.35;100.00;101019.46;1737027;81;22301;-69
2021/11/15 09:50:13;;;;;;;;;;;;;;;4.28;100.00;101011.87;1723288;81;20168;-73
2021/11/15 09:52:39;;;;;;;;;;;;;;;4.27;100.00;101021.67;1724041;83;20522;-72
2021/11/15 09:55:06;;;;;;;;;;;;;;;4.38;100.00;101017.77;1724284;83;20123;-70
2021/11/15 09:57:40;;;;;;;;;;;;;;;4.43;100.00;101030.02;1724037;83;20199;-73
2021/11/15 10:00:12;;;;;;;;;;;;;;;4.47;100.00;101029.19;1724186;83;22185;-71
2021/11/15 10:02:49;;;;;;;;;;;;;;;4.50;100.00;101029.64;1721613;81;20446;-71
2021/11/15 10:05:18;;;;;;;;;;;;;;;4.53;100.00;101031.12;1716903;82;20221;-71
2021/11/15 10:07:54;;;;;;;;;;;;;;;4.61;100.00;101028.92;1693530;83;20225;-72
2021/11/15 10:10:46;;;;;;;;;;;;;;;4.56;100.00;101034.77;1716544;83;20129;-70
2021/11/15 10:13:19;;;;;;;;;;;;;;;4.55;100.00;101040.27;1733497;82;21091;-69
2021/11/15 10:15:49;;;;;;;;;;;;;;;4.61;100.00;101034.25;1745115;82;20131;-70
2021/11/15 10:18:32;;;;;;;;;;;;;;;4.61;100.00;101040.39;1717146;83;20216;-72
2021/11/15 10:21:02;;;;;;;;;;;;;;;4.71;100.00;101037.48;1747774;82;20098;-69
2021/11/15 10:23:38;;;;;;;;;;;;;;;4.84;100.00;101037.69;1728551;82;20136;-72
2021/11/15 10:26:27;;;;;;;;;;;;;;;4.88;100.00;101039.50;1718639;83;21709;-73
2021/11/15 10:28:53;;;;;;;;;;;;;;;5.06;100.00;101045.30;1721849;83;20108;-74
2021/11/15 10:31:29;;;;;;;;;;;;;;;5.05;100.00;101045.50;1702967;83;20202;-71
2021/11/15 10:33:56;;;;;;;;;;;;;;;5.01;100.00;101051.67;1722088;82;20173;-73
2021/11/15 10:36:49;;;;;;;;;;;;;;;4.88;100.00;101052.80;1712569;82;20184;-72
2021/11/15 10:39:19;;;;;;;;;;;;;;;4.82;100.00;101060.98;1714193;82;21165;-70
2021/11/15 10:42:05;;;;;;;;;;;;;;;5.13;100.00;101055.55;1721315;82;20156;-70
2021/11/15 10:44:33;;;;;;;;;;;;;;;5.33;100.00;101057.69;1713048;83;20149;-71
2021/11/15 10:46:59;;;;;;;;;;;;;;;5.59;100.00;101063.91;1708448;83;20134;-70
2021/11/15 10:49:27;;;;;;;;;;;;;;;5.62;100.00;101050.22;1687947;83;20186;-68
2021/11/15 10:52:01;;;;;;;;;;;;;;;5.48;100.00;101055.86;1673596;83;21164;-72
2021/11/15 10:54:35;;;;;;;;;;;;;;;5.45;100.00;101063.40;1656295;83;20202;-69
2021/11/15 10:57:00;;;;;;;;;;;;;;;5.50;100.00;101066.34;1673667;84;20183;-73
2021/11/15 10:59:27;;;;;;;;;;;;;;;5.49;100.00;101066.84;1659385;84;20624;-68
2021/11/15 11:01:54;;;;;;;;;;;;;;;5.37;100.00;101068.31;1692557;83;20195;-72
2021/11/15 11:04:24;;;;;;;;;;;;;;;5.23;100.00;101069.94;1692950;83;20947;-70
2021/11/15 11:07:04;;;;;;;;;;;;;;;5.30;100.00;101071.37;1730703;83;20158;-72
2021/11/15 11:09:36;;;;;;;;;;;;;;;5.62;100.00;101070.20;1713720;83;20423;-70
2021/11/15 11:12:21;;;;;;;;;;;;;;;5.77;100.00;101080.33;1687064;85;20415;-69
2021/11/15 11:14:50;;;;;;;;;;;;;;;5.60;100.00;101078.87;1685818;85;20170;-71
2021/11/15 11:17:18;;;;;;;;;;;;;;;5.34;100.00;101077.48;1712970;83;20314;-67
2021/11/15 11:20:49;;;;;;;;;;;;;;;5.16;100.00;101079.14;1724192;81;20085;-69
2021/11/15 11:23:05;;;;;;;;;;;;;;;5.29;100.00;101084.34;1715249;83;20219;-67
2021/11/15 11:25:29;;;;;;;;;;;;;;;5.58;100.00;101084.87;1724850;82;20223;-72
2021/11/15 11:28:00;;;;;;;;;;;;;;;5.90;100.00;101086.33;1724093;83;20439;-68
2021/11/15 11:30:28;;;;;;;;;;;;;;;6.29;100.00;101087.05;1685499;84;21171;-71
2021/11/15 11:32:55;;;;;;;;;;;;;;;6.42;100.00;101089.36;1697143;84;20181;-72
2021/11/15 11:35:24;;;;;;;;;;;;;;;6.61;100.00;101089.25;1700726;83;20101;-70
2021/11/15 11:37:50;;;;;;;;;;;;;;;6.48;100.00;101090.44;1700553;84;20130;-69
2021/11/15 11:40:17;;;;;;;;;;;;;;;6.00;100.00;101086.08;1700317;84;20498;-70
2021/11/15 11:42:46;;;;;;;;;;;;;;;5.72;100.00;101087.23;1701153;84;21096;-71
2021/11/15 11:45:18;;;;;;;;;;;;;;;5.84;100.00;101095.59;1696454;83;20105;-72
2021/11/15 11:47:44;;;;;;;;;;;;;;;6.21;100.00;101103.98;1696922;82;20152;-70
2021/11/15 11:50:11;;;;;;;;;;;;;;;6.60;100.00;101097.44;1686223;83;20441;-73
2021/11/15 11:52:40;;;;;;;;;;;;;;;6.36;100.00;101087.94;1669175;84;20150;-73
2021/11/15 11:55:20;;;;;;;;;;;;;;;6.09;100.00;101095.63;1684001;85;21154;-71
2021/11/15 11:57:47;;;;;;;;;;;;;;;5.71;100.00;101097.58;1691634;83;20236;-71
2021/11/15 12:00:16;;;;;;;;;;;;;;;5.36;100.00;101091.94;1697223;83;20087;-73
2021/11/15 12:02:45;;;;;;;;;;;;;;;5.18;100.00;101092.80;1687562;85;20457;-73
2021/11/15 12:05:14;;;;;;;;;;;;;;;5.06;100.00;101100.38;1694110;83;20190;-70
2021/11/15 12:07:54;;;;;;;;;;;;;;;5.02;100.00;101104.39;1691595;83;22394;-71
2021/11/15 12:10:42;;;;;;;;;;;;;;;4.88;100.00;101101.52;1701615;84;20114;-71
2021/11/15 12:13:12;;;;;;;;;;;;;;;4.80;100.00;101102.92;1690528;83;20158;-72
2021/11/15 12:15:58;;;;;;;;;;;;;;;4.73;100.00;101099.31;1696253;83;20152;-74
2021/11/15 12:18:26;;;;;;;;;;;;;;;4.68;100.00;101107.83;1669861;85;20235;-70
2021/11/15 12:21:05;;;;;;;;;;;;;;;4.58;100.00;101109.04;1679089;83;20365;-71
2021/11/15 12:23:36;;;;;;;;;;;;;;;4.57;100.00;101114.05;1685400;85;20147;-70
2021/11/15 12:26:12;;;;;;;;;;;;;;;4.44;100.00;101113.30;1683280;84;20452;-74
2021/11/15 12:28:43;;;;;;;;;;;;;;;4.32;100.00;101106.72;1683447;85;20189;-73
2021/11/15 12:31:13;;;;;;;;;;;;;;;4.29;100.00;101119.86;1688606;83;20089;-71
2021/11/15 12:33:42;;;;;;;;;;;;;;;4.22;100.00;101113.59;1698873;83;21173;-72
2021/11/15 12:36:23;;;;;;;;;;;;;;;4.20;100.00;101124.38;1725934;83;20442;-71
2021/11/15 12:38:50;;;;;;;;;;;;;;;4.13;100.00;101120.75;1710948;81;20151;-70
2021/11/15 12:41:24;;;;;;;;;;;;;;;4.03;100.00;101117.48;1708537;82;20143;-72
2021/11/15 12:44:10;;;;;;;;;;;;;;;4.02;100.00;101121.16;1699403;83;20250;-70
2021/11/15 12:47:01;;;;;;;;;;;;;;;3.98;100.00;101124.64;1694717;83;20592;-74